Cape Providence — 3EWQ — position and weather

sailwx.info

Track history (hours):
 
Tides and Currents Weather Stations Pressure Air Temp Water Temp Dewpoint Dewpoint Depression Visibility Wind Speed Wind Dir Waves Ship Positions

Cape Providence

Last reported at 2014-Aug-29 02:29 UTC. Time now 2014-Sep-02 18:59 UTC.
Position N 30°33' E 032°18'.

Length 292 m; draft 18.8 m.

Type: Cargo ship. MMSI: 372773000.

Date/timePositionNaut miles runAvg speedWind from/ knotsBaromVisibWave heightAir tempDewpointWater temp
2014-Aug-29 02:29N 30°33' E 032°18'7 7.0
2014-Aug-29 01:30N 30°40' E 032°20'23 7.9
2014-Aug-28 22:33N 31°03' E 032°19'24 3.9
2014-Aug-28 16:14N 31°28' E 032°19'15713.3
2014-Aug-28 04:24N 33°23' E 030°11'1113.2
2014-Aug-28 03:33N 33°31' E 030°02'27312.9
2014-Aug-27 06:26N 36°53' E 026°18'1113.2
2014-Aug-27 05:33N 37°03' E 026°10'1312.7
2014-Aug-27 04:33N 37°14' E 026°03'1312.8
2014-Aug-27 03:33N 37°26' E 025°57'1312.6
2014-Aug-27 02:33N 37°38' E 025°55'1312.5
2014-Aug-27 01:31N 37°51' E 025°58'25 3.2
2014-Aug-26 17:33N 38°15' E 025°48'1312.7
2014-Aug-26 16:33N 38°28' E 025°45'1312.8
2014-Aug-26 15:31N 38°41' E 025°44'11910.7
2014-Aug-26 04:28N 40°28' E 026°50'90 7.5
2014-Aug-25 16:25N 40°54' E 028°44'1011.4
2014-Aug-25 15:33N 40°57' E 028°56'38 1.9
2014-Aug-24 19:18N 41°30' E 029°20'4 5.3
2014-Aug-24 18:33N 41°30' E 029°26'41510.6
2014-Aug-23 03:32N 44°35' E 037°55'0 0.0
2014-Aug-23 02:32N 44°35' E 037°55'0 0.0
2014-Aug-23 01:32N 44°35' E 037°54'0 0.0
2014-Aug-23 00:32N 44°35' E 037°54'0 0.0
2014-Aug-22 23:29N 44°35' E 037°54'0 0.0
2014-Aug-22 22:32N 44°35' E 037°55'0 0.0
2014-Aug-22 21:32N 44°35' E 037°55'0 0.1
2014-Aug-22 20:32N 44°35' E 037°55'0 0.0
2014-Aug-22 19:32N 44°35' E 037°55'0 0.0
2014-Aug-22 18:32N 44°35' E 037°55'0 0.0
2014-Aug-22 17:32N 44°35' E 037°55'0 0.0
2014-Aug-22 16:32N 44°35' E 037°55'0 0.0
2014-Aug-22 15:32N 44°35' E 037°55'0 0.1
2014-Aug-22 14:26N 44°35' E 037°55'0 0.1
2014-Aug-22 13:26N 44°35' E 037°54'0 0.0
2014-Aug-22 12:32N 44°35' E 037°54'0 0.0
2014-Aug-22 11:29N 44°35' E 037°54'0 0.0
2014-Aug-22 10:32N 44°35' E 037°54'0 0.0
2014-Aug-22 09:32N 44°35' E 037°54'0 0.0
2014-Aug-22 08:32N 44°35' E 037°54'0 0.0
2014-Aug-22 07:32N 44°35' E 037°54'0 0.0
2014-Aug-22 06:32N 44°35' E 037°54'0 0.0
2014-Aug-22 05:32N 44°35' E 037°54'0 0.0
2014-Aug-22 04:32N 44°35' E 037°54'0 0.0
2014-Aug-22 03:32N 44°35' E 037°54'0 0.0
2014-Aug-22 02:32N 44°35' E 037°54'0 0.0
2014-Aug-22 01:32N 44°35' E 037°54'0 0.1
2014-Aug-22 00:32N 44°35' E 037°54'0 0.1
2014-Aug-21 23:29N 44°35' E 037°54'0 0.0
2014-Aug-21 22:32N 44°35' E 037°55'0 0.0
2014-Aug-21 21:32N 44°35' E 037°55'0 0.0
2014-Aug-21 20:32N 44°35' E 037°55'0 0.0
2014-Aug-21 19:32N 44°35' E 037°55'0 0.0
2014-Aug-21 18:32N 44°35' E 037°54'0 0.0
2014-Aug-21 17:32N 44°35' E 037°54'0 0.0
2014-Aug-21 16:32N 44°35' E 037°55'0 0.1
2014-Aug-21 15:32N 44°35' E 037°55'0 0.0
2014-Aug-21 14:32N 44°35' E 037°55'0 0.1
2014-Aug-21 13:32N 44°35' E 037°55'1 0.7
2014-Aug-21 12:33N 44°34' E 037°54'5 5.1
2014-Aug-21 11:34N 44°31' E 037°48'1211.8
2014-Aug-21 10:34N 44°26' E 037°33'1312.4
2014-Aug-21 09:30N 44°20' E 037°17'10511.7
2014-Aug-21 00:29N 44°15' E 034°50'1111.8
2014-Aug-20 23:33N 44°15' E 034°35'1412.2
2014-Aug-20 22:24N 44°15' E 034°15'4811.2
2014-Aug-20 18:07N 44°29' E 033°11'912.7
2014-Aug-20 17:23N 44°36' E 033°02'1112.9
2014-Aug-20 16:33N 44°44' E 032°52'13510.9
2014-Aug-20 04:14N 46°34' E 031°00'3 0.4
2014-Aug-19 21:03N 46°37' E 031°02'  
Track history (hours):
 
Tides and Currents Weather Stations Pressure Air Temp Water Temp Dewpoint Dewpoint Depression Visibility Wind Speed Wind Dir Waves Ship Positions

Cape Providence

Last reported at 2014-Aug-29 02:29 UTC. Time now 2014-Sep-02 18:59 UTC.
Position N 30°33' E 032°18'.

Length 292 m; draft 18.8 m.

Type: Cargo ship. MMSI: 372773000.

Date/timePositionNaut miles runAvg speedWind from/ knotsBaromVisibWave heightAir tempDewpointWater temp
2014-Aug-29 02:29N 30°33' E 032°18'7 7.0
2014-Aug-29 01:30N 30°40' E 032°20'23 7.9
2014-Aug-28 22:33N 31°03' E 032°19'24 3.9
2014-Aug-28 16:14N 31°28' E 032°19'15713.3
2014-Aug-28 04:24N 33°23' E 030°11'1113.2
2014-Aug-28 03:33N 33°31' E 030°02'27312.9
2014-Aug-27 06:26N 36°53' E 026°18'1113.2
2014-Aug-27 05:33N 37°03' E 026°10'1312.7
2014-Aug-27 04:33N 37°14' E 026°03'1312.8
2014-Aug-27 03:33N 37°26' E 025°57'1312.6
2014-Aug-27 02:33N 37°38' E 025°55'1312.5
2014-Aug-27 01:31N 37°51' E 025°58'25 3.2
2014-Aug-26 17:33N 38°15' E 025°48'1312.7
2014-Aug-26 16:33N 38°28' E 025°45'1312.8
2014-Aug-26 15:31N 38°41' E 025°44'11910.7
2014-Aug-26 04:28N 40°28' E 026°50'90 7.5
2014-Aug-25 16:25N 40°54' E 028°44'1011.4
2014-Aug-25 15:33N 40°57' E 028°56'38 1.9
2014-Aug-24 19:18N 41°30' E 029°20'4 5.3
2014-Aug-24 18:33N 41°30' E 029°26'41510.6
2014-Aug-23 03:32N 44°35' E 037°55'0 0.0
2014-Aug-23 02:32N 44°35' E 037°55'0 0.0
2014-Aug-23 01:32N 44°35' E 037°54'0 0.0
2014-Aug-23 00:32N 44°35' E 037°54'0 0.0
2014-Aug-22 23:29N 44°35' E 037°54'0 0.0
2014-Aug-22 22:32N 44°35' E 037°55'0 0.0
2014-Aug-22 21:32N 44°35' E 037°55'0 0.1
2014-Aug-22 20:32N 44°35' E 037°55'0 0.0
2014-Aug-22 19:32N 44°35' E 037°55'0 0.0
2014-Aug-22 18:32N 44°35' E 037°55'0 0.0
2014-Aug-22 17:32N 44°35' E 037°55'0 0.0
2014-Aug-22 16:32N 44°35' E 037°55'0 0.0
2014-Aug-22 15:32N 44°35' E 037°55'0 0.1
2014-Aug-22 14:26N 44°35' E 037°55'0 0.1
2014-Aug-22 13:26N 44°35' E 037°54'0 0.0
2014-Aug-22 12:32N 44°35' E 037°54'0 0.0
2014-Aug-22 11:29N 44°35' E 037°54'0 0.0
2014-Aug-22 10:32N 44°35' E 037°54'0 0.0
2014-Aug-22 09:32N 44°35' E 037°54'0 0.0
2014-Aug-22 08:32N 44°35' E 037°54'0 0.0
2014-Aug-22 07:32N 44°35' E 037°54'0 0.0
2014-Aug-22 06:32N 44°35' E 037°54'0 0.0
2014-Aug-22 05:32N 44°35' E 037°54'0 0.0
2014-Aug-22 04:32N 44°35' E 037°54'0 0.0
2014-Aug-22 03:32N 44°35' E 037°54'0 0.0
2014-Aug-22 02:32N 44°35' E 037°54'0 0.0
2014-Aug-22 01:32N 44°35' E 037°54'0 0.1
2014-Aug-22 00:32N 44°35' E 037°54'0 0.1
2014-Aug-21 23:29N 44°35' E 037°54'0 0.0
2014-Aug-21 22:32N 44°35' E 037°55'0 0.0
2014-Aug-21 21:32N 44°35' E 037°55'0 0.0
2014-Aug-21 20:32N 44°35' E 037°55'0 0.0
2014-Aug-21 19:32N 44°35' E 037°55'0 0.0
2014-Aug-21 18:32N 44°35' E 037°54'0 0.0
2014-Aug-21 17:32N 44°35' E 037°54'0 0.0
2014-Aug-21 16:32N 44°35' E 037°55'0 0.1
2014-Aug-21 15:32N 44°35' E 037°55'0 0.0
2014-Aug-21 14:32N 44°35' E 037°55'0 0.1
2014-Aug-21 13:32N 44°35' E 037°55'1 0.7
2014-Aug-21 12:33N 44°34' E 037°54'5 5.1
2014-Aug-21 11:34N 44°31' E 037°48'1211.8
2014-Aug-21 10:34N 44°26' E 037°33'1312.4
2014-Aug-21 09:30N 44°20' E 037°17'10511.7
2014-Aug-21 00:29N 44°15' E 034°50'1111.8
2014-Aug-20 23:33N 44°15' E 034°35'1412.2
2014-Aug-20 22:24N 44°15' E 034°15'4811.2
2014-Aug-20 18:07N 44°29' E 033°11'912.7
2014-Aug-20 17:23N 44°36' E 033°02'1112.9
2014-Aug-20 16:33N 44°44' E 032°52'13510.9
2014-Aug-20 04:14N 46°34' E 031°00'3 0.4
2014-Aug-19 21:03N 46°37' E 031°02'  

Dump ship's entire track history